createdAt,value
2019-05-15T00:00:19.317Z,13.60
2019-05-15T00:02:48.163Z,13.60
2019-05-15T00:05:18.864Z,13.50
2019-05-15T00:07:48.427Z,13.50
2019-05-15T00:10:18.096Z,13.50
2019-05-15T00:12:48.696Z,13.50
2019-05-15T00:15:18.248Z,13.40
2019-05-15T00:17:48.535Z,13.40
2019-05-15T00:20:16.873Z,13.40
2019-05-15T00:22:45.273Z,13.40
2019-05-15T00:25:13.694Z,13.40
2019-05-15T00:27:42.251Z,13.30
2019-05-15T00:30:10.646Z,13.30
2019-05-15T00:32:39.479Z,13.30
2019-05-15T00:35:09.399Z,13.20
2019-05-15T00:37:38.826Z,13.20
2019-05-15T00:40:08.856Z,13.20
2019-05-15T00:42:38.437Z,13.20
2019-05-15T00:45:09.378Z,13.10
2019-05-15T00:47:39.600Z,13.10
2019-05-15T00:50:08.878Z,13.10
2019-05-15T00:52:39.069Z,13.10
2019-05-15T00:55:08.614Z,13.00
2019-05-15T00:57:39.307Z,13.00
2019-05-15T01:00:08.170Z,13.00
2019-05-15T01:02:38.775Z,12.90
2019-05-15T01:05:08.127Z,13.00
2019-05-15T01:07:38.950Z,12.90
2019-05-15T01:10:09.935Z,12.90
2019-05-15T01:12:38.095Z,12.80
2019-05-15T01:15:09.282Z,12.80
2019-05-15T01:17:50.816Z,12.80
2019-05-15T01:20:19.182Z,12.80
2019-05-15T01:22:48.573Z,12.70
2019-05-15T01:25:18.620Z,12.70
2019-05-15T01:27:49.005Z,12.70
2019-05-15T01:30:18.061Z,12.70
2019-05-15T01:32:48.476Z,12.70
2019-05-15T01:35:17.988Z,12.70
2019-05-15T01:37:48.352Z,12.70
2019-05-15T01:40:18.248Z,12.70
2019-05-15T01:42:46.819Z,12.60
2019-05-15T01:45:15.169Z,12.60
2019-05-15T01:47:43.488Z,12.60
2019-05-15T01:50:12.482Z,12.50
2019-05-15T01:52:40.836Z,12.50
2019-05-15T01:55:09.521Z,12.50
2019-05-15T01:57:38.517Z,12.50
2019-05-15T02:00:08.686Z,12.50
2019-05-15T02:02:38.907Z,12.50
2019-05-15T02:05:08.496Z,12.50
2019-05-15T02:07:39.132Z,12.50
2019-05-15T02:10:09.106Z,12.40
2019-05-15T02:12:38.747Z,12.40
2019-05-15T02:15:08.497Z,12.30
2019-05-15T02:17:39.297Z,12.40
2019-05-15T02:20:08.353Z,12.30
2019-05-15T02:22:42.054Z,12.30
2019-05-15T02:25:08.609Z,12.30
2019-05-15T02:27:39.214Z,12.30
2019-05-15T02:30:17.926Z,12.20
2019-05-15T02:32:39.614Z,12.20
2019-05-15T02:35:09.868Z,12.20
2019-05-15T02:37:41.146Z,12.20
2019-05-15T02:40:09.902Z,12.20
2019-05-15T02:42:39.919Z,12.10
2019-05-15T02:45:09.891Z,12.00
2019-05-15T02:47:39.411Z,11.90
2019-05-15T02:50:10.809Z,11.90
2019-05-15T02:52:40.750Z,11.90
2019-05-15T02:55:09.315Z,11.80
2019-05-15T02:57:39.449Z,11.80
2019-05-15T03:00:10.895Z,11.80
2019-05-15T03:02:41.214Z,11.80
2019-05-15T03:05:09.343Z,11.80
2019-05-15T03:07:40.406Z,11.70
2019-05-15T03:10:09.372Z,11.70
2019-05-15T03:12:40.636Z,11.60
2019-05-15T03:15:09.583Z,11.50
2019-05-15T03:17:40.352Z,11.50
2019-05-15T03:20:10.339Z,11.50
2019-05-15T03:22:40.153Z,11.50
2019-05-15T03:25:10.620Z,11.50
2019-05-15T03:27:39.757Z,11.50
2019-05-15T03:30:13.831Z,11.50
2019-05-15T03:32:46.831Z,11.50
2019-05-15T03:35:32.653Z,11.50
2019-05-15T03:37:59.879Z,11.50
2019-05-15T03:40:29.923Z,11.50
2019-05-15T03:42:59.260Z,11.60
2019-05-15T03:45:29.721Z,11.60
2019-05-15T03:47:59.542Z,11.60
2019-05-15T03:50:28.923Z,11.50
2019-05-15T03:52:58.894Z,11.60
2019-05-15T03:55:29.653Z,11.60
2019-05-15T03:57:59.185Z,11.50
2019-05-15T04:00:30.159Z,11.60
2019-05-15T04:02:59.079Z,11.60
2019-05-15T04:05:29.443Z,11.60
2019-05-15T04:07:59.879Z,11.60
2019-05-15T04:10:28.791Z,11.50
2019-05-15T04:13:00.108Z,11.60
2019-05-15T04:15:30.201Z,11.50
2019-05-15T04:18:00.307Z,11.60
2019-05-15T04:20:29.667Z,11.60
2019-05-15T04:23:00.289Z,11.50
2019-05-15T04:25:29.677Z,11.50
2019-05-15T04:27:58.897Z,11.50
2019-05-15T04:30:30.494Z,11.50
2019-05-15T04:32:59.493Z,11.40
2019-05-15T04:35:28.911Z,11.40
2019-05-15T04:37:59.743Z,11.30
2019-05-15T04:40:29.848Z,11.30
2019-05-15T04:43:00.902Z,11.30
2019-05-15T04:45:34.642Z,11.30
2019-05-15T04:47:59.431Z,11.40
2019-05-15T04:50:28.784Z,11.30
2019-05-15T04:52:59.244Z,11.30
2019-05-15T04:55:28.960Z,11.30
2019-05-15T04:57:59.218Z,11.20
2019-05-15T05:00:51.869Z,11.20
2019-05-15T05:03:20.709Z,11.30
2019-05-15T05:05:50.214Z,11.40
2019-05-15T05:08:20.769Z,11.40
2019-05-15T05:10:49.570Z,11.40
2019-05-15T05:13:19.766Z,11.40
2019-05-15T05:15:49.959Z,11.40
2019-05-15T05:18:19.060Z,11.40
2019-05-15T05:20:48.513Z,11.30
2019-05-15T05:23:19.174Z,11.30
2019-05-15T05:25:49.076Z,11.30
2019-05-15T05:28:18.148Z,11.20
2019-05-15T05:30:48.273Z,11.30
2019-05-15T05:33:18.125Z,11.20
2019-05-15T05:35:48.633Z,11.20
2019-05-15T05:38:19.277Z,11.30
2019-05-15T05:40:49.586Z,11.30
2019-05-15T05:43:18.984Z,11.20
2019-05-15T05:45:49.246Z,11.20
2019-05-15T05:48:18.689Z,11.20
2019-05-15T05:50:49.709Z,11.20
2019-05-15T05:53:17.630Z,11.40
2019-05-15T05:55:45.918Z,11.50
2019-05-15T05:58:14.234Z,11.60
2019-05-15T06:00:44.768Z,11.80
2019-05-15T06:03:13.251Z,11.80
2019-05-15T06:05:41.691Z,11.80
2019-05-15T06:08:10.103Z,11.80
2019-05-15T06:10:38.830Z,11.90
2019-05-15T06:13:08.727Z,11.90
2019-05-15T06:15:37.944Z,11.90
2019-05-15T06:18:08.298Z,12.00
2019-05-15T06:20:39.340Z,12.10
2019-05-15T06:23:08.485Z,12.20
2019-05-15T06:25:39.085Z,12.20
2019-05-15T06:28:09.027Z,12.30
2019-05-15T06:30:38.654Z,12.40
2019-05-15T06:33:13.164Z,12.50
2019-05-15T06:35:39.327Z,12.50
2019-05-15T06:38:08.551Z,12.60
2019-05-15T06:40:39.340Z,12.60
2019-05-15T06:43:08.725Z,12.70
2019-05-15T06:45:38.009Z,12.80
2019-05-15T06:48:09.295Z,13.00
2019-05-15T06:50:38.754Z,13.10
2019-05-15T06:53:10.429Z,13.30
2019-05-15T06:55:38.913Z,13.40
2019-05-15T06:58:09.218Z,13.40
2019-05-15T07:00:39.129Z,13.50
2019-05-15T07:03:20.331Z,13.60
2019-05-15T07:05:38.593Z,13.70
2019-05-15T07:08:09.042Z,13.70
2019-05-15T07:10:37.760Z,13.70
2019-05-15T07:13:08.705Z,13.80
2019-05-15T07:15:38.442Z,13.90
2019-05-15T07:18:08.653Z,13.90
2019-05-15T07:20:38.906Z,14.00
2019-05-15T07:23:08.776Z,14.00
2019-05-15T07:25:39.032Z,14.20
2019-05-15T07:28:08.810Z,14.40
2019-05-15T07:30:41.018Z,14.50
2019-05-15T07:33:08.803Z,14.70
2019-05-15T07:35:38.463Z,14.70
2019-05-15T07:38:07.998Z,14.80
2019-05-15T07:40:38.833Z,14.80
2019-05-15T07:43:09.100Z,14.70
2019-05-15T07:45:42.488Z,14.70
2019-05-15T07:48:09.018Z,14.70
2019-05-15T07:50:38.681Z,14.80
2019-05-15T07:53:08.787Z,14.80
2019-05-15T07:55:39.374Z,14.80
2019-05-15T07:58:08.591Z,14.80
2019-05-15T08:00:39.404Z,14.90
2019-05-15T08:03:10.006Z,14.90
2019-05-15T08:05:39.441Z,15.00
2019-05-15T08:08:08.849Z,15.10
2019-05-15T08:10:39.632Z,15.10
2019-05-15T08:13:08.918Z,15.20
2019-05-15T08:15:38.161Z,15.20
2019-05-15T08:18:09.830Z,15.30
2019-05-15T08:20:38.508Z,15.40
2019-05-15T08:23:08.485Z,15.50
2019-05-15T08:25:38.901Z,15.60
2019-05-15T08:28:08.786Z,15.70
2019-05-15T08:30:38.722Z,15.80
2019-05-15T08:33:08.390Z,16.00
2019-05-15T08:35:38.719Z,16.20
2019-05-15T08:38:08.773Z,16.20
2019-05-15T08:40:41.129Z,16.30
2019-05-15T08:43:11.349Z,16.40
2019-05-15T08:45:39.098Z,16.40
2019-05-15T08:48:09.385Z,16.40
2019-05-15T08:50:39.037Z,16.50
2019-05-15T08:53:08.346Z,16.60
2019-05-15T08:55:39.027Z,16.70
2019-05-15T08:58:13.572Z,16.60
2019-05-15T09:00:40.162Z,16.60
2019-05-15T09:03:08.726Z,16.50
2019-05-15T09:05:38.847Z,16.50
2019-05-15T09:08:09.267Z,16.60
2019-05-15T09:10:38.505Z,16.60
2019-05-15T09:13:09.582Z,16.60
2019-05-15T09:15:39.517Z,16.70
2019-05-15T09:18:15.040Z,16.70
2019-05-15T09:20:38.332Z,16.70
2019-05-15T09:23:08.939Z,16.90
2019-05-15T09:25:38.845Z,16.90
2019-05-15T09:28:08.692Z,16.80
2019-05-15T09:30:39.132Z,16.90
2019-05-15T09:33:08.689Z,17.00
2019-05-15T09:35:39.254Z,16.90
2019-05-15T09:38:08.642Z,16.90
2019-05-15T09:40:43.260Z,16.80
2019-05-15T09:43:10.797Z,16.70
2019-05-15T09:45:38.126Z,16.70
2019-05-15T09:48:09.483Z,16.70
2019-05-15T09:50:39.657Z,16.70
2019-05-15T09:53:09.128Z,16.60
2019-05-15T09:55:56.225Z,16.50
2019-05-15T09:58:24.626Z,16.40
2019-05-15T10:00:53.688Z,16.40
2019-05-15T10:03:22.246Z,16.40
2019-05-15T10:05:50.624Z,16.40
2019-05-15T10:08:21.388Z,16.40
2019-05-15T10:10:49.118Z,16.40
2019-05-15T10:13:18.622Z,16.50
2019-05-15T10:15:50.649Z,16.50
2019-05-15T10:18:19.062Z,16.60
2019-05-15T10:20:47.394Z,16.60
2019-05-15T10:23:19.091Z,16.50
2019-05-15T10:25:48.233Z,16.60
2019-05-15T10:28:18.659Z,16.60
2019-05-15T10:30:48.794Z,16.60
2019-05-15T10:33:16.072Z,16.60
2019-05-15T10:35:45.028Z,16.60
2019-05-15T10:38:13.471Z,16.70
2019-05-15T10:41:00.289Z,16.80
2019-05-15T10:43:20.694Z,16.90
2019-05-15T10:45:50.032Z,17.00
2019-05-15T10:48:20.544Z,17.00
2019-05-15T10:50:47.722Z,16.80
2019-05-15T10:53:18.689Z,16.70
2019-05-15T10:55:49.488Z,16.50
2019-05-15T10:58:21.778Z,16.40
2019-05-15T11:00:49.419Z,16.20
2019-05-15T11:03:19.945Z,16.10
2019-05-15T11:05:49.250Z,16.00
2019-05-15T11:08:18.878Z,15.90
2019-05-15T11:10:49.295Z,15.80
2019-05-15T11:13:18.599Z,15.70
2019-05-15T11:15:49.188Z,15.60
2019-05-15T11:18:17.934Z,15.50
2019-05-15T11:20:48.686Z,15.40
2019-05-15T11:23:19.554Z,15.40
2019-05-15T11:25:48.588Z,15.30
2019-05-15T11:28:16.493Z,15.30
2019-05-15T11:30:44.920Z,15.30
2019-05-15T11:33:13.365Z,15.20
2019-05-15T11:35:56.787Z,15.20
2019-05-15T11:38:11.848Z,15.30
2019-05-15T11:40:40.226Z,15.30
2019-05-15T11:43:08.719Z,15.20
2019-05-15T11:45:39.053Z,15.10
2019-05-15T11:48:09.006Z,15.00
2019-05-15T11:50:40.091Z,15.00
2019-05-15T11:53:08.740Z,14.90
2019-05-15T11:55:38.666Z,14.80
2019-05-15T11:58:09.384Z,14.80
2019-05-15T12:00:38.444Z,14.80
2019-05-15T12:03:08.931Z,14.70
2019-05-15T12:05:38.815Z,14.70
2019-05-15T12:08:08.692Z,14.70
2019-05-15T12:10:38.918Z,14.80
2019-05-15T12:13:09.814Z,14.80
2019-05-15T12:15:38.841Z,14.90
2019-05-15T12:18:08.921Z,14.90
2019-05-15T12:20:39.074Z,15.10
2019-05-15T12:23:08.990Z,15.30
2019-05-15T12:25:39.351Z,15.40
2019-05-15T12:28:09.417Z,15.50
2019-05-15T12:30:40.373Z,15.60
2019-05-15T12:33:09.472Z,15.60
2019-05-15T12:35:39.606Z,15.70
2019-05-15T13:00:58.273Z,16.10
2019-05-15T13:03:28.711Z,16.10
2019-05-15T13:05:56.691Z,16.00
2019-05-15T13:08:25.011Z,15.90
2019-05-15T13:10:53.427Z,15.90
2019-05-15T13:13:21.828Z,15.80
2019-05-15T13:15:50.206Z,15.80
2019-05-15T13:18:18.647Z,15.70
2019-05-15T13:20:49.010Z,15.80
2019-05-15T13:23:17.128Z,15.70
2019-05-15T13:25:48.132Z,15.60
2019-05-15T13:28:18.159Z,15.60
2019-05-15T13:30:45.586Z,15.70
2019-05-15T13:33:14.081Z,15.70
2019-05-15T13:35:45.291Z,15.60
2019-05-15T13:38:12.936Z,15.60
2019-05-15T13:40:42.527Z,15.60
2019-05-15T13:43:11.157Z,15.60
2019-05-15T13:45:39.592Z,15.60
2019-05-15T13:48:08.889Z,15.70
2019-05-15T13:50:40.343Z,15.70
2019-05-15T13:53:10.709Z,15.80
2019-05-15T13:55:42.437Z,16.00
2019-05-15T13:58:08.718Z,16.20
2019-05-15T14:00:39.088Z,16.50
2019-05-15T14:03:09.036Z,16.90
2019-05-15T14:05:38.523Z,17.90
2019-05-15T14:08:07.137Z,19.10
2019-05-15T14:10:38.237Z,19.90
2019-05-15T14:13:05.765Z,21.00
2019-05-15T14:15:34.153Z,22.20
2019-05-15T14:18:02.587Z,23.20
2019-05-15T14:20:30.962Z,23.90
2019-05-15T14:22:59.390Z,24.50
2019-05-15T14:25:27.795Z,24.70
2019-05-15T14:27:59.116Z,24.90
2019-05-15T14:30:29.031Z,24.30
2019-05-15T14:32:59.373Z,23.50
2019-05-15T14:35:26.542Z,22.90
2019-05-15T14:38:05.409Z,22.30
2019-05-15T14:40:25.138Z,21.80
2019-05-15T14:42:53.541Z,21.40
2019-05-15T14:45:21.888Z,21.20
2019-05-15T14:47:50.464Z,21.10
2019-05-15T14:50:18.851Z,21.20
2019-05-15T14:52:47.984Z,21.50
2019-05-15T14:55:17.314Z,21.90
2019-05-15T14:57:48.478Z,22.40
2019-05-15T15:00:19.405Z,23.30
2019-05-15T15:02:49.117Z,24.60
2019-05-15T15:05:20.876Z,25.00
2019-05-15T15:07:48.788Z,24.90
2019-05-15T15:10:19.715Z,24.50
2019-05-15T15:12:46.524Z,24.10
2019-05-15T15:15:14.876Z,23.70
2019-05-15T15:17:43.262Z,23.70
2019-05-15T15:20:11.761Z,24.40
2019-05-15T15:22:40.333Z,24.00
2019-05-15T15:25:09.632Z,24.10
2019-05-15T15:27:39.043Z,23.90
2019-05-15T15:30:09.181Z,24.60
2019-05-15T15:32:38.659Z,24.90
2019-05-15T15:35:08.537Z,25.30
2019-05-15T15:37:38.195Z,25.80
2019-05-15T15:40:08.315Z,25.50
2019-05-15T15:42:39.288Z,26.10
2019-05-15T15:45:09.002Z,27.20
2019-05-15T15:47:39.035Z,28.10
2019-05-15T15:50:09.521Z,27.20
2019-05-15T15:52:38.429Z,27.00
2019-05-15T15:55:08.977Z,27.40
2019-05-15T15:57:39.640Z,27.50
2019-05-15T16:00:10.974Z,26.90
2019-05-15T16:02:41.144Z,26.60
2019-05-15T16:05:09.639Z,26.10
2019-05-15T16:07:38.432Z,25.80
2019-05-15T16:10:08.332Z,25.80
2019-05-15T16:12:38.768Z,26.10
2019-05-15T16:15:08.879Z,26.60
2019-05-15T16:17:38.522Z,26.80
2019-05-15T16:20:08.293Z,27.20
2019-05-15T16:22:38.193Z,27.50
2019-05-15T16:25:09.562Z,27.90
2019-05-15T16:27:38.553Z,28.40
2019-05-15T16:30:08.336Z,28.70
2019-05-15T16:32:38.945Z,28.50
2019-05-15T16:35:08.368Z,28.10
2019-05-15T16:37:38.869Z,27.40
2019-05-15T16:40:07.500Z,26.40
2019-05-15T16:42:38.144Z,25.30
2019-05-15T16:45:09.342Z,24.60
2019-05-15T16:47:38.761Z,24.00
2019-05-15T16:50:08.167Z,23.50
2019-05-15T16:52:38.735Z,23.10
2019-05-15T16:55:09.321Z,22.90
2019-05-15T16:57:38.625Z,22.60
2019-05-15T17:00:09.534Z,22.40
2019-05-15T17:02:39.174Z,22.20
2019-05-15T17:05:07.724Z,22.10
2019-05-15T17:07:38.662Z,21.90
2019-05-15T17:10:08.414Z,21.70
2019-05-15T17:12:38.566Z,21.50
2019-05-15T17:15:08.497Z,21.30
2019-05-15T17:17:38.773Z,21.20
2019-05-15T17:20:09.691Z,21.00
2019-05-15T17:22:38.531Z,20.80
2019-05-15T17:25:09.198Z,20.60
2019-05-15T17:27:37.115Z,20.50
2019-05-15T17:30:09.411Z,20.30
2019-05-15T17:32:38.883Z,20.20
2019-05-15T17:35:09.891Z,20.00
2019-05-15T17:37:37.981Z,19.90
2019-05-15T17:40:06.860Z,19.80
2019-05-15T17:42:35.339Z,19.70
2019-05-15T17:45:04.521Z,19.60
2019-05-15T17:47:32.901Z,19.50
2019-05-15T17:50:01.312Z,19.50
2019-05-15T17:52:29.944Z,19.30
2019-05-15T17:54:59.305Z,19.30
2019-05-15T17:57:28.640Z,19.30
2019-05-15T17:59:59.003Z,19.20
2019-05-15T18:02:28.592Z,19.00
2019-05-15T18:04:58.856Z,18.90
2019-05-15T18:07:28.143Z,18.90
2019-05-15T18:09:58.942Z,18.80
2019-05-15T18:12:29.041Z,18.70
2019-05-15T18:14:58.327Z,18.60
2019-05-15T18:17:26.846Z,18.50
2019-05-15T18:19:58.097Z,18.50
2019-05-15T18:22:26.822Z,18.40
2019-05-15T18:24:55.189Z,18.20
2019-05-15T18:27:23.735Z,18.20
2019-05-15T18:29:52.130Z,18.10
2019-05-15T18:32:20.517Z,18.00
2019-05-15T18:34:49.091Z,17.90
2019-05-15T18:37:19.156Z,17.80
2019-05-15T18:39:49.366Z,17.70
2019-05-15T18:42:18.647Z,17.60
2019-05-15T18:44:48.219Z,17.50
2019-05-15T18:47:18.667Z,17.50
2019-05-15T18:50:03.756Z,17.40
2019-05-15T18:52:18.164Z,17.30
2019-05-15T18:54:48.025Z,17.20
2019-05-15T18:57:18.491Z,17.10
2019-05-15T18:59:48.529Z,17.00
2019-05-15T19:02:19.014Z,17.00
2019-05-15T19:04:48.890Z,17.00
2019-05-15T19:07:18.142Z,16.90
2019-05-15T19:09:47.995Z,16.90
2019-05-15T19:12:17.914Z,16.80
2019-05-15T19:14:49.174Z,16.80
2019-05-15T19:17:18.560Z,16.70
2019-05-15T19:19:48.208Z,16.60
2019-05-15T19:22:19.290Z,16.60
2019-05-15T19:24:48.491Z,16.50
2019-05-15T19:27:18.723Z,16.50
2019-05-15T19:29:48.380Z,16.50
2019-05-15T19:32:17.750Z,16.50
2019-05-15T19:34:48.209Z,16.40
2019-05-15T19:37:18.341Z,16.40
2019-05-15T19:39:47.979Z,16.30
2019-05-15T19:42:18.110Z,16.30
2019-05-15T19:44:48.505Z,16.30
2019-05-15T19:47:18.538Z,16.20
2019-05-15T19:49:48.412Z,16.10
2019-05-15T19:52:17.897Z,16.10
2019-05-15T19:54:48.369Z,16.10
2019-05-15T19:57:18.473Z,16.10
2019-05-15T19:59:48.669Z,16.00
2019-05-15T20:02:18.032Z,16.00
2019-05-15T20:04:46.480Z,16.00
2019-05-15T20:07:14.862Z,15.90
2019-05-15T20:09:43.306Z,15.80
2019-05-15T20:12:11.749Z,15.80
2019-05-15T20:14:40.515Z,15.80
2019-05-15T20:17:08.882Z,15.70
2019-05-15T20:19:38.236Z,15.70
2019-05-15T20:22:28.296Z,15.70
2019-05-15T20:24:58.345Z,15.60
2019-05-15T20:27:28.219Z,15.60
2019-05-15T20:29:56.804Z,15.50
2019-05-15T20:32:27.678Z,15.50
2019-05-15T20:34:55.280Z,15.50
2019-05-15T20:37:24.278Z,15.40
2019-05-15T20:39:52.605Z,15.40
2019-05-15T20:42:20.968Z,15.40
2019-05-15T20:44:51.413Z,15.30
2019-05-15T20:47:19.790Z,15.30
2019-05-15T20:49:48.501Z,15.20
2019-05-15T20:52:21.615Z,15.20
2019-05-15T20:54:51.372Z,15.20
2019-05-15T20:57:19.805Z,15.20
2019-05-15T20:59:48.271Z,15.20
2019-05-15T21:02:18.656Z,15.10
2019-05-15T21:04:46.784Z,15.10
2019-05-15T21:07:15.256Z,15.10
2019-05-15T21:09:43.702Z,15.00
2019-05-15T21:12:12.087Z,14.90
2019-05-15T21:14:42.198Z,14.90
2019-05-15T21:17:10.648Z,14.90
2019-05-15T21:19:39.064Z,14.80
2019-05-15T21:22:08.372Z,14.80
2019-05-15T21:24:37.855Z,14.80
2019-05-15T21:27:06.438Z,14.70
2019-05-15T21:29:35.158Z,14.70
2019-05-15T21:32:03.644Z,14.60
2019-05-15T21:34:37.342Z,14.60
2019-05-15T21:37:02.300Z,14.60
2019-05-15T21:39:30.660Z,14.60
2019-05-15T21:42:00.140Z,14.50
2019-05-15T21:44:29.335Z,14.40
2019-05-15T21:46:58.701Z,14.30
2019-05-15T21:49:28.160Z,14.20
2019-05-15T21:51:58.381Z,14.20
2019-05-15T21:54:28.172Z,14.10
2019-05-15T21:57:12.913Z,14.00
2019-05-15T21:59:27.848Z,13.90
2019-05-15T22:01:58.778Z,13.80
2019-05-15T22:04:28.144Z,13.70
2019-05-15T22:06:58.457Z,13.70
2019-05-15T22:09:28.949Z,13.50
2019-05-15T22:11:58.371Z,13.60
2019-05-15T22:14:26.894Z,13.60
2019-05-15T22:16:55.322Z,13.50
2019-05-15T22:19:24.172Z,13.50
2019-05-15T22:21:52.603Z,13.50
2019-05-15T22:24:20.994Z,13.30
2019-05-15T22:26:49.584Z,13.20
2019-05-15T22:29:20.803Z,13.20
2019-05-15T22:31:48.616Z,13.20
2019-05-15T22:34:18.448Z,13.20
2019-05-15T22:36:48.811Z,13.10
2019-05-15T22:39:18.874Z,13.20
2019-05-15T22:41:47.871Z,13.20
2019-05-15T22:44:18.998Z,13.20
2019-05-15T22:46:48.752Z,13.10
2019-05-15T22:49:18.301Z,13.10
2019-05-15T22:51:48.658Z,13.10
2019-05-15T22:54:16.773Z,13.10
2019-05-15T22:56:45.141Z,13.10
2019-05-15T22:59:13.513Z,13.00
2019-05-15T23:01:42.134Z,13.00
2019-05-15T23:04:10.512Z,13.00
2019-05-15T23:06:39.085Z,12.90
2019-05-15T23:09:07.507Z,12.70
2019-05-15T23:11:35.853Z,12.80
2019-05-15T23:14:04.217Z,12.80
2019-05-15T23:16:32.876Z,12.80
2019-05-15T23:19:01.618Z,12.70
2019-05-15T23:21:30.027Z,12.70
2019-05-15T23:23:58.451Z,12.70
2019-05-15T23:26:28.298Z,12.60
2019-05-15T23:28:58.564Z,12.60
2019-05-15T23:31:28.105Z,12.50
2019-05-15T23:33:56.520Z,12.40
2019-05-15T23:36:24.887Z,12.40
2019-05-15T23:38:53.292Z,12.40
2019-05-15T23:41:21.613Z,12.40
2019-05-15T23:43:50.002Z,12.30
2019-05-15T23:46:18.637Z,12.30
2019-05-15T23:48:48.537Z,12.20
2019-05-15T23:51:18.934Z,12.20
2019-05-15T23:53:48.319Z,12.20
2019-05-15T23:56:19.044Z,12.10
2019-05-15T23:58:46.924Z,12.10
